sensor_id;sensor_type;location;lat;lon;timestamp;pressure;altitude;pressure_sealevel;temperature;humidity
12759;BME280;20944;47.048;15.390;2023-04-10T00:00:35;98348.47;;;5.36;100.00
12759;BME280;20944;47.048;15.390;2023-04-10T00:03:05;98345.84;;;5.31;100.00
12759;BME280;20944;47.048;15.390;2023-04-10T00:05:35;98342.34;;;5.28;100.00
12759;BME280;20944;47.048;15.390;2023-04-10T00:08:03;98346.69;;;5.29;100.00
12759;BME280;20944;47.048;15.390;2023-04-10T00:10:31;98345.81;;;5.27;100.00
12759;BME280;20944;47.048;15.390;2023-04-10T00:13:00;98342.34;;;5.26;100.00
12759;BME280;20944;47.048;15.390;2023-04-10T00:15:29;98325.84;;;5.18;100.00
12759;BME280;20944;47.048;15.390;2023-04-10T00:17:57;98327.63;;;5.27;100.00
12759;BME280;20944;47.048;15.390;2023-04-10T00:20:26;98339.78;;;5.29;100.00
12759;BME280;20944;47.048;15.390;2023-04-10T00:22:55;98287.72;;;5.11;100.00
12759;BME280;20944;47.048;15.390;2023-04-10T00:25:24;98339.81;;;5.35;100.00
12759;BME280;20944;47.048;15.390;2023-04-10T00:27:52;98302.41;;;5.09;100.00
12759;BME280;20944;47.048;15.390;2023-04-10T00:30:21;98337.16;;;5.31;100.00
12759;BME280;20944;47.048;15.390;2023-04-10T00:32:49;98248.63;;;4.83;100.00
12759;BME280;20944;47.048;15.390;2023-04-10T00:35:17;98308.53;;;5.19;100.00
12759;BME280;20944;47.048;15.390;2023-04-10T00:37:45;98335.47;;;5.37;100.00
12759;BME280;20944;47.048;15.390;2023-04-10T00:40:17;98333.75;;;5.43;100.00
12759;BME280;20944;47.048;15.390;2023-04-10T00:42:45;98331.94;;;5.26;100.00
12759;BME280;20944;47.048;15.390;2023-04-10T00:45:13;98341.56;;;5.41;100.00
12759;BME280;20944;47.048;15.390;2023-04-10T00:47:42;98312.06;;;5.30;100.00
12759;BME280;20944;47.048;15.390;2023-04-10T00:50:10;98325.00;;;5.21;100.00
12759;BME280;20944;47.048;15.390;2023-04-10T00:52:38;98338.84;;;5.18;100.00
12759;BME280;20944;47.048;15.390;2023-04-10T00:55:08;98337.06;;;5.14;100.00
12759;BME280;20944;47.048;15.390;2023-04-10T00:57:39;98334.44;;;5.08;100.00
12759;BME280;20944;47.048;15.390;2023-04-10T01:00:12;98337.94;;;5.10;100.00
12759;BME280;20944;47.048;15.390;2023-04-10T01:02:40;98330.97;;;5.09;100.00
12759;BME280;20944;47.048;15.390;2023-04-10T01:05:09;98338.78;;;5.09;100.00
12759;BME280;20944;47.048;15.390;2023-04-10T01:07:53;98309.31;;;4.98;100.00
12759;BME280;20944;47.048;15.390;2023-04-10T01:10:29;98329.25;;;5.08;100.00
12759;BME280;20944;47.048;15.390;2023-04-10T01:13:10;98333.63;;;5.13;100.00
12759;BME280;20944;47.048;15.390;2023-04-10T01:15:46;98325.00;;;5.19;100.00
12759;BME280;20944;47.048;15.390;2023-04-10T01:18:23;98325.00;;;5.24;100.00
12759;BME280;20944;47.048;15.390;2023-04-10T01:20:52;98325.00;;;5.24;100.00
12759;BME280;20944;47.048;15.390;2023-04-10T01:24:00;98320.69;;;5.26;100.00
12759;BME280;20944;47.048;15.390;2023-04-10T01:26:46;98210.41;;;4.50;100.00
12759;BME280;20944;47.048;15.390;2023-04-10T01:29:22;98342.31;;;5.19;100.00
12759;BME280;20944;47.048;15.390;2023-04-10T01:31:58;98325.00;;;5.18;100.00
12759;BME280;20944;47.048;15.390;2023-04-10T01:34:31;98324.16;;;5.22;100.00
12759;BME280;20944;47.048;15.390;2023-04-10T01:37:04;98323.31;;;5.29;100.00
12759;BME280;20944;47.048;15.390;2023-04-10T01:39:38;98290.25;;;4.99;100.00
12759;BME280;20944;47.048;15.390;2023-04-10T01:42:08;98293.69;;;4.95;100.00
12759;BME280;20944;47.048;15.390;2023-04-10T01:44:41;98315.38;;;4.98;100.00
12759;BME280;20944;47.048;15.390;2023-04-10T01:47:13;98323.09;;;4.89;100.00
12759;BME280;20944;47.048;15.390;2023-04-10T01:49:44;98119.09;;;3.68;100.00
12759;BME280;20944;47.048;15.390;2023-04-10T01:52:14;98311.78;;;4.79;100.00
12759;BME280;20944;47.048;15.390;2023-04-10T01:54:42;98316.16;;;4.85;100.00
12759;BME280;20944;47.048;15.390;2023-04-10T01:57:14;98310.94;;;4.79;100.00
12759;BME280;20944;47.048;15.390;2023-04-10T01:59:44;98315.25;;;4.81;100.00
12759;BME280;20944;47.048;15.390;2023-04-10T02:02:12;98311.75;;;4.73;100.00
12759;BME280;20944;47.048;15.390;2023-04-10T02:04:41;98311.72;;;4.67;100.00
12759;BME280;20944;47.048;15.390;2023-04-10T02:07:12;98309.91;;;4.57;100.00
12759;BME280;20944;47.048;15.390;2023-04-10T02:09:47;98308.91;;;4.40;100.00
12759;BME280;20944;47.048;15.390;2023-04-10T02:12:22;98309.81;;;4.45;100.00
12759;BME280;20944;47.048;15.390;2023-04-10T02:14:56;98320.09;;;4.31;100.00
12759;BME280;20944;47.048;15.390;2023-04-10T02:17:28;98278.38;;;4.05;100.00
12759;BME280;20944;47.048;15.390;2023-04-10T02:19:57;98320.84;;;4.21;100.00
12759;BME280;20944;47.048;15.390;2023-04-10T02:22:26;98319.06;;;4.14;100.00
12759;BME280;20944;47.048;15.390;2023-04-10T02:24:56;98312.94;;;4.04;100.00
12759;BME280;20944;47.048;15.390;2023-04-10T02:27:29;98320.72;;;4.02;100.00
12759;BME280;20944;47.048;15.390;2023-04-10T02:29:59;98179.09;;;3.19;100.00
12759;BME280;20944;47.048;15.390;2023-04-10T02:32:28;98300.75;;;3.94;100.00
12759;BME280;20944;47.048;15.390;2023-04-10T02:34:57;98314.75;;;4.10;100.00
12759;BME280;20944;47.048;15.390;2023-04-10T02:37:25;98308.59;;;4.01;100.00
12759;BME280;20944;47.048;15.390;2023-04-10T02:39:53;98290.22;;;3.77;100.00
12759;BME280;20944;47.048;15.390;2023-04-10T02:42:21;98295.25;;;3.63;100.00
12759;BME280;20944;47.048;15.390;2023-04-10T02:44:50;98310.00;;;3.66;100.00
12759;BME280;20944;47.048;15.390;2023-04-10T02:47:19;98321.28;;;3.71;100.00
12759;BME280;20944;47.048;15.390;2023-04-10T02:49:48;98315.19;;;3.69;100.00
12759;BME280;20944;47.048;15.390;2023-04-10T02:52:16;98201.34;;;2.99;100.00
12759;BME280;20944;47.048;15.390;2023-04-10T02:54:44;98302.03;;;3.49;100.00
12759;BME280;20944;47.048;15.390;2023-04-10T02:57:13;98216.84;;;2.97;100.00
12759;BME280;20944;47.048;15.390;2023-04-10T02:59:41;98321.88;;;3.48;100.00
12759;BME280;20944;47.048;15.390;2023-04-10T03:02:10;98289.78;;;3.34;100.00
12759;BME280;20944;47.048;15.390;2023-04-10T03:04:40;98307.19;;;3.46;100.00
12759;BME280;20944;47.048;15.390;2023-04-10T03:07:08;98305.41;;;3.45;100.00
12759;BME280;20944;47.048;15.390;2023-04-10T03:09:37;98308.00;;;3.45;100.00
12759;BME280;20944;47.048;15.390;2023-04-10T03:12:05;98151.47;;;2.41;100.00
12759;BME280;20944;47.048;15.390;2023-04-10T03:14:33;98312.28;;;3.40;100.00
12759;BME280;20944;47.048;15.390;2023-04-10T03:17:01;98217.41;;;2.74;100.00
12759;BME280;20944;47.048;15.390;2023-04-10T03:19:29;98313.09;;;3.37;100.00
12759;BME280;20944;47.048;15.390;2023-04-10T03:21:59;98291.31;;;3.18;100.00
12759;BME280;20944;47.048;15.390;2023-04-10T03:24:28;98314.03;;;3.44;100.00
12759;BME280;20944;47.048;15.390;2023-04-10T03:26:56;98225.44;;;2.95;100.00
12759;BME280;20944;47.048;15.390;2023-04-10T03:29:24;98314.06;;;3.45;100.00
12759;BME280;20944;47.048;15.390;2023-04-10T03:31:52;98316.47;;;3.29;100.00
12759;BME280;20944;47.048;15.390;2023-04-10T03:34:21;98322.44;;;3.21;100.00
12759;BME280;20944;47.048;15.390;2023-04-10T03:36:49;98324.16;;;3.22;100.00
12759;BME280;20944;47.048;15.390;2023-04-10T03:39:19;98327.53;;;3.17;100.00
12759;BME280;20944;47.048;15.390;2023-04-10T03:41:47;98323.16;;;3.13;100.00
12759;BME280;20944;47.048;15.390;2023-04-10T03:44:16;98325.72;;;3.08;100.00
12759;BME280;20944;47.048;15.390;2023-04-10T03:46:44;98320.50;;;3.07;100.00
12759;BME280;20944;47.048;15.390;2023-04-10T03:49:13;98317.03;;;3.06;100.00
12759;BME280;20944;47.048;15.390;2023-04-10T03:51:42;98291.75;;;2.87;100.00
12759;BME280;20944;47.048;15.390;2023-04-10T03:54:10;98297.88;;;2.90;100.00
12759;BME280;20944;47.048;15.390;2023-04-10T03:56:39;98314.59;;;3.17;100.00
12759;BME280;20944;47.048;15.390;2023-04-10T03:59:08;98311.09;;;3.13;100.00
12759;BME280;20944;47.048;15.390;2023-04-10T04:01:36;98317.97;;;3.13;100.00
12759;BME280;20944;47.048;15.390;2023-04-10T04:04:05;98318.59;;;2.95;100.00
12759;BME280;20944;47.048;15.390;2023-04-10T04:06:34;98234.06;;;2.29;100.00
12759;BME280;20944;47.048;15.390;2023-04-10T04:09:02;98303.50;;;2.62;100.00
12759;BME280;20944;47.048;15.390;2023-04-10T04:11:30;98311.25;;;2.62;100.00
12759;BME280;20944;47.048;15.390;2023-04-10T04:14:00;98327.75;;;2.70;100.00
12759;BME280;20944;47.048;15.390;2023-04-10T04:16:28;98332.13;;;2.73;100.00
12759;BME280;20944;47.048;15.390;2023-04-10T04:18:56;98317.53;;;2.79;100.00
12759;BME280;20944;47.048;15.390;2023-04-10T04:21:25;98304.34;;;2.62;100.00
12759;BME280;20944;47.048;15.390;2023-04-10T04:23:53;98334.72;;;2.74;100.00
12759;BME280;20944;47.048;15.390;2023-04-10T04:26:21;98332.91;;;2.70;100.00
12759;BME280;20944;47.048;15.390;2023-04-10T04:28:50;98326.94;;;2.74;100.00
12759;BME280;20944;47.048;15.390;2023-04-10T04:31:20;98317.25;;;2.59;100.00
12759;BME280;20944;47.048;15.390;2023-04-10T04:33:50;98338.16;;;2.75;100.00
12759;BME280;20944;47.048;15.390;2023-04-10T04:36:18;98331.34;;;2.80;100.00
12759;BME280;20944;47.048;15.390;2023-04-10T04:38:46;98302.63;;;2.63;100.00
12759;BME280;20944;47.048;15.390;2023-04-10T04:41:14;98328.94;;;2.92;100.00
12759;BME280;20944;47.048;15.390;2023-04-10T04:43:46;98334.13;;;2.95;100.00
12759;BME280;20944;47.048;15.390;2023-04-10T04:46:15;98332.47;;;2.98;100.00
12759;BME280;20944;47.048;15.390;2023-04-10T04:48:44;98332.56;;;3.05;100.00
12759;BME280;20944;47.048;15.390;2023-04-10T04:51:12;98333.59;;;3.17;100.00
12759;BME280;20944;47.048;15.390;2023-04-10T04:53:41;98338.88;;;3.27;100.00
12759;BME280;20944;47.048;15.390;2023-04-10T04:56:09;98332.78;;;3.23;100.00
12759;BME280;20944;47.048;15.390;2023-04-10T04:58:37;98308.41;;;3.04;100.00
12759;BME280;20944;47.048;15.390;2023-04-10T05:01:06;98325.84;;;3.19;100.00
12759;BME280;20944;47.048;15.390;2023-04-10T05:03:34;98339.09;;;3.45;100.00
12759;BME280;20944;47.048;15.390;2023-04-10T05:06:04;98341.81;;;3.54;100.00
12759;BME280;20944;47.048;15.390;2023-04-10T05:08:33;98347.16;;;3.69;100.00
12759;BME280;20944;47.048;15.390;2023-04-10T05:11:01;98338.50;;;3.67;100.00
12759;BME280;20944;47.048;15.390;2023-04-10T05:13:29;98338.38;;;3.58;100.00
12759;BME280;20944;47.048;15.390;2023-04-10T05:15:57;98195.00;;;2.76;100.00
12759;BME280;20944;47.048;15.390;2023-04-10T05:18:26;98341.09;;;3.66;100.00
12759;BME280;20944;47.048;15.390;2023-04-10T05:20:54;98343.75;;;3.75;100.00
12759;BME280;20944;47.048;15.390;2023-04-10T05:23:24;98331.72;;;3.80;100.00
12759;BME280;20944;47.048;15.390;2023-04-10T05:25:52;98347.59;;;4.12;100.00
12759;BME280;20944;47.048;15.390;2023-04-10T05:28:20;98325.13;;;4.11;100.00
12759;BME280;20944;47.048;15.390;2023-04-10T05:30:49;98357.44;;;4.48;100.00
12759;BME280;20944;47.048;15.390;2023-04-10T05:33:17;98353.22;;;4.64;100.00
12759;BME280;20944;47.048;15.390;2023-04-10T05:35:45;98311.69;;;4.63;100.00
12759;BME280;20944;47.048;15.390;2023-04-10T05:38:13;98268.34;;;4.49;100.00
12759;BME280;20944;47.048;15.390;2023-04-10T05:40:46;98359.63;;;5.18;100.00
12759;BME280;20944;47.048;15.390;2023-04-10T05:43:14;98356.25;;;5.37;100.00
12759;BME280;20944;47.048;15.390;2023-04-10T05:45:43;98353.75;;;5.54;100.00
12759;BME280;20944;47.048;15.390;2023-04-10T05:48:11;98317.28;;;5.47;100.00
12759;BME280;20944;47.048;15.390;2023-04-10T05:50:39;98354.72;;;5.87;100.00
12759;BME280;20944;47.048;15.390;2023-04-10T05:53:13;98353.91;;;6.00;100.00
12759;BME280;20944;47.048;15.390;2023-04-10T05:55:41;98361.72;;;6.14;100.00
12759;BME280;20944;47.048;15.390;2023-04-10T05:58:11;98358.28;;;6.26;100.00
12759;BME280;20944;47.048;15.390;2023-04-10T06:00:39;98361.75;;;6.29;100.00
12759;BME280;20944;47.048;15.390;2023-04-10T06:03:07;98343.53;;;6.28;100.00
12759;BME280;20944;47.048;15.390;2023-04-10T06:05:37;98365.25;;;6.56;100.00
12759;BME280;20944;47.048;15.390;2023-04-10T06:08:07;98347.88;;;6.67;100.00
12759;BME280;20944;47.048;15.390;2023-04-10T06:10:35;98359.13;;;6.84;100.00
12759;BME280;20944;47.048;15.390;2023-04-10T06:13:03;98352.16;;;6.97;100.00
12759;BME280;20944;47.048;15.390;2023-04-10T06:15:35;98308.78;;;6.87;100.00
12759;BME280;20944;47.048;15.390;2023-04-10T06:18:04;98353.00;;;7.20;100.00
12759;BME280;20944;47.048;15.390;2023-04-10T06:20:32;98355.53;;;7.34;100.00
12759;BME280;20944;47.048;15.390;2023-04-10T06:23:01;98358.09;;;7.51;100.00
12759;BME280;20944;47.048;15.390;2023-04-10T06:25:29;98351.09;;;7.64;100.00
12759;BME280;20944;47.048;15.390;2023-04-10T06:27:57;98361.44;;;7.82;100.00
12759;BME280;20944;47.048;15.390;2023-04-10T06:30:26;98357.91;;;7.98;100.00
12759;BME280;20944;47.048;15.390;2023-04-10T06:32:56;98333.47;;;8.04;100.00
12759;BME280;20944;47.048;15.390;2023-04-10T06:35:24;98310.88;;;8.03;100.00
12759;BME280;20944;47.048;15.390;2023-04-10T06:37:53;98360.22;;;8.41;100.00
12759;BME280;20944;47.048;15.390;2023-04-10T06:40:21;98354.06;;;8.53;100.00
12759;BME280;20944;47.048;15.390;2023-04-10T06:42:49;98353.88;;;8.73;100.00
12759;BME280;20944;47.048;15.390;2023-04-10T06:45:17;98351.22;;;8.80;100.00
12759;BME280;20944;47.048;15.390;2023-04-10T06:47:46;98345.16;;;8.75;100.00
12759;BME280;20944;47.048;15.390;2023-04-10T06:50:16;98353.94;;;8.70;100.00
12759;BME280;20944;47.048;15.390;2023-04-10T06:52:45;98300.09;;;8.50;100.00
12759;BME280;20944;47.048;15.390;2023-04-10T06:55:13;98333.84;;;8.75;100.00
12759;BME280;20944;47.048;15.390;2023-04-10T06:57:41;98330.31;;;8.82;100.00
12759;BME280;20944;47.048;15.390;2023-04-10T07:00:10;98336.22;;;9.01;100.00
12759;BME280;20944;47.048;15.390;2023-04-10T07:02:38;98351.66;;;9.25;100.00
12759;BME280;20944;47.048;15.390;2023-04-10T07:05:08;98340.19;;;9.37;100.00
12759;BME280;20944;47.048;15.390;2023-04-10T07:07:37;98263.91;;;8.98;100.00
12759;BME280;20944;47.048;15.390;2023-04-10T07:10:07;98246.47;;;9.00;100.00
12759;BME280;20944;47.048;15.390;2023-04-10T07:12:35;98330.84;;;9.85;100.00
12759;BME280;20944;47.048;15.390;2023-04-10T07:15:04;98339.44;;;9.95;100.00
12759;BME280;20944;47.048;15.390;2023-04-10T07:17:34;98341.16;;;9.97;100.00
12759;BME280;20944;47.048;15.390;2023-04-10T07:20:03;98344.69;;;9.95;100.00
12759;BME280;20944;47.048;15.390;2023-04-10T07:22:31;98341.91;;;10.04;100.00
12759;BME280;20944;47.048;15.390;2023-04-10T07:25:01;98330.53;;;10.08;100.00
12759;BME280;20944;47.048;15.390;2023-04-10T07:27:29;98303.41;;;10.12;100.00
12759;BME280;20944;47.048;15.390;2023-04-10T07:29:57;98335.28;;;10.42;100.00
12759;BME280;20944;47.048;15.390;2023-04-10T07:32:26;98321.34;;;10.40;100.00
12759;BME280;20944;47.048;15.390;2023-04-10T07:34:54;98343.69;;;10.62;100.00
12759;BME280;20944;47.048;15.390;2023-04-10T07:37:23;98314.09;;;10.56;100.00
12759;BME280;20944;47.048;15.390;2023-04-10T07:39:51;98335.66;;;10.73;100.00
12759;BME280;20944;47.048;15.390;2023-04-10T07:42:21;98325.97;;;10.76;100.00
12759;BME280;20944;47.048;15.390;2023-04-10T07:44:49;98326.63;;;10.89;100.00
12759;BME280;20944;47.048;15.390;2023-04-10T07:47:17;98334.22;;;11.04;100.00
12759;BME280;20944;47.048;15.390;2023-04-10T07:49:46;98280.41;;;10.84;100.00
12759;BME280;20944;47.048;15.390;2023-04-10T07:52:15;98336.44;;;11.26;69.67
12759;BME280;20944;47.048;15.390;2023-04-10T07:54:43;98340.94;;;11.19;68.42
12759;BME280;20944;47.048;15.390;2023-04-10T07:57:12;98334.84;;;11.17;69.46
12759;BME280;20944;47.048;15.390;2023-04-10T07:59:41;98339.31;;;11.12;68.13
12759;BME280;20944;47.048;15.390;2023-04-10T08:02:10;98316.00;;;10.97;69.66
12759;BME280;20944;47.048;15.390;2023-04-10T08:04:38;98336.84;;;11.04;67.16
12759;BME280;20944;47.048;15.390;2023-04-10T08:07:08;98339.38;;;11.09;67.57
12759;BME280;20944;47.048;15.390;2023-04-10T08:09:37;98334.91;;;11.14;62.42
12759;BME280;20944;47.048;15.390;2023-04-10T08:12:05;98343.94;;;10.98;55.37
12759;BME280;20944;47.048;15.390;2023-04-10T08:14:33;98339.75;;;10.89;55.97
12759;BME280;20944;47.048;15.390;2023-04-10T08:17:03;98335.41;;;10.88;57.82
12759;BME280;20944;47.048;15.390;2023-04-10T08:19:32;98341.31;;;10.98;57.58
12759;BME280;20944;47.048;15.390;2023-04-10T08:22:01;98341.25;;;11.02;57.05
12759;BME280;20944;47.048;15.390;2023-04-10T08:24:29;98326.38;;;11.03;58.31
12759;BME280;20944;47.048;15.390;2023-04-10T08:26:58;98333.56;;;11.40;56.98
12759;BME280;20944;47.048;15.390;2023-04-10T08:29:26;98297.69;;;11.40;52.71
12759;BME280;20944;47.048;15.390;2023-04-10T08:31:54;98303.47;;;11.56;53.88
12759;BME280;20944;47.048;15.390;2023-04-10T08:34:27;98326.44;;;11.90;53.36
12759;BME280;20944;47.048;15.390;2023-04-10T08:36:56;98320.19;;;11.95;49.94
12759;BME280;20944;47.048;15.390;2023-04-10T08:39:24;98326.97;;;12.04;53.34
12759;BME280;20944;47.048;15.390;2023-04-10T08:41:52;98327.69;;;12.10;51.53
12759;BME280;20944;47.048;15.390;2023-04-10T08:44:21;98329.25;;;12.19;51.37
12759;BME280;20944;47.048;15.390;2023-04-10T08:46:50;98325.50;;;12.29;53.18
12759;BME280;20944;47.048;15.390;2023-04-10T08:49:23;98315.38;;;12.14;48.06
12759;BME280;20944;47.048;15.390;2023-04-10T08:51:58;98289.47;;;11.55;48.42
12759;BME280;20944;47.048;15.390;2023-04-10T08:54:28;98294.72;;;11.57;51.74
12759;BME280;20944;47.048;15.390;2023-04-10T08:56:56;98164.81;;;10.96;51.82
12759;BME280;20944;47.048;15.390;2023-04-10T08:59:27;98297.59;;;11.86;52.72
12759;BME280;20944;47.048;15.390;2023-04-10T09:01:55;98278.50;;;11.78;48.40
12759;BME280;20944;47.048;15.390;2023-04-10T09:04:24;98293.25;;;11.85;48.60
12759;BME280;20944;47.048;15.390;2023-04-10T09:06:53;98233.19;;;11.69;51.06
12759;BME280;20944;47.048;15.390;2023-04-10T09:09:23;98285.44;;;12.21;50.52
12759;BME280;20944;47.048;15.390;2023-04-10T09:11:58;98294.41;;;12.48;51.39
12759;BME280;20944;47.048;15.390;2023-04-10T09:14:30;98311.13;;;12.80;52.22
12759;BME280;20944;47.048;15.390;2023-04-10T09:17:13;98307.06;;;13.01;49.89
12759;BME280;20944;47.048;15.390;2023-04-10T09:19:42;98258.41;;;12.84;49.08
12759;BME280;20944;47.048;15.390;2023-04-10T09:22:11;98252.47;;;12.78;46.38
12759;BME280;20944;47.048;15.390;2023-04-10T09:24:42;98190.69;;;12.27;46.96
12759;BME280;20944;47.048;15.390;2023-04-10T09:27:29;98286.19;;;12.94;48.49
12759;BME280;20944;47.048;15.390;2023-04-10T09:30:01;98299.69;;;13.15;47.92
12759;BME280;20944;47.048;15.390;2023-04-10T09:32:38;98300.16;;;13.31;49.07
12759;BME280;20944;47.048;15.390;2023-04-10T09:35:08;98274.09;;;13.21;46.35
12759;BME280;20944;47.048;15.390;2023-04-10T09:37:38;98302.25;;;13.49;48.76
12759;BME280;20944;47.048;15.390;2023-04-10T09:40:19;98290.06;;;13.45;46.26
12759;BME280;20944;47.048;15.390;2023-04-10T09:42:47;98284.75;;;13.15;44.58
12759;BME280;20944;47.048;15.390;2023-04-10T09:45:16;98291.28;;;13.01;47.21
12759;BME280;20944;47.048;15.390;2023-04-10T09:48:00;98291.91;;;13.10;48.49
12759;BME280;20944;47.048;15.390;2023-04-10T09:50:36;98286.19;;;13.29;48.67
12759;BME280;20944;47.048;15.390;2023-04-10T09:53:06;98284.09;;;13.40;49.08
12759;BME280;20944;47.048;15.390;2023-04-10T09:55:36;98279.53;;;13.46;48.60
12759;BME280;20944;47.048;15.390;2023-04-10T09:58:05;98272.72;;;13.39;44.63
12759;BME280;20944;47.048;15.390;2023-04-10T10:00:41;98268.78;;;13.23;45.93
12759;BME280;20944;47.048;15.390;2023-04-10T10:03:11;98274.44;;;13.40;48.76
12759;BME280;20944;47.048;15.390;2023-04-10T10:05:42;98136.63;;;12.81;48.41
12759;BME280;20944;47.048;15.390;2023-04-10T10:08:12;98264.81;;;13.69;47.61
12759;BME280;20944;47.048;15.390;2023-04-10T10:10:45;98263.88;;;13.70;47.72
12759;BME280;20944;47.048;15.390;2023-04-10T10:13:15;98215.56;;;13.43;47.64
12759;BME280;20944;47.048;15.390;2023-04-10T10:15:50;98236.25;;;13.55;46.57
12759;BME280;20944;47.048;15.390;2023-04-10T10:18:26;98242.13;;;13.65;48.97
12759;BME280;20944;47.048;15.390;2023-04-10T10:20:59;98247.22;;;13.71;47.37
12759;BME280;20944;47.048;15.390;2023-04-10T10:23:28;98241.59;;;13.82;47.15
12759;BME280;20944;47.048;15.390;2023-04-10T10:26:00;98255.53;;;13.85;44.90
12759;BME280;20944;47.048;15.390;2023-04-10T10:28:32;98243.47;;;13.78;49.12
12759;BME280;20944;47.048;15.390;2023-04-10T10:31:02;98255.81;;;13.76;45.97
12759;BME280;20944;47.048;15.390;2023-04-10T10:33:32;98249.72;;;13.44;48.52
12759;BME280;20944;47.048;15.390;2023-04-10T10:36:03;98205.63;;;13.23;50.24
12759;BME280;20944;47.048;15.390;2023-04-10T10:38:31;98246.97;;;13.79;47.60
12759;BME280;20944;47.048;15.390;2023-04-10T10:41:09;98148.31;;;13.33;47.25
12759;BME280;20944;47.048;15.390;2023-04-10T10:43:47;98230.84;;;13.88;47.23
12759;BME280;20944;47.048;15.390;2023-04-10T10:46:23;98237.25;;;14.09;47.08
12759;BME280;20944;47.048;15.390;2023-04-10T10:48:56;98236.34;;;14.10;48.47
12759;BME280;20944;47.048;15.390;2023-04-10T10:51:43;98223.56;;;14.24;48.61
12759;BME280;20944;47.048;15.390;2023-04-10T10:54:27;98239.22;;;14.02;44.31
12759;BME280;20944;47.048;15.390;2023-04-10T10:56:57;98184.56;;;13.53;45.88
12759;BME280;20944;47.048;15.390;2023-04-10T10:59:53;98223.22;;;13.80;45.45
12759;BME280;20944;47.048;15.390;2023-04-10T11:02:22;98217.06;;;13.80;46.07
12759;BME280;20944;47.048;15.390;2023-04-10T11:04:51;98215.44;;;13.75;45.96
12759;BME280;20944;47.048;15.390;2023-04-10T11:07:19;98211.41;;;13.92;49.54
12759;BME280;20944;47.048;15.390;2023-04-10T11:09:49;98204.28;;;13.95;45.68
12759;BME280;20944;47.048;15.390;2023-04-10T11:12:21;98199.78;;;13.99;46.30
12759;BME280;20944;47.048;15.390;2023-04-10T11:14:57;98107.13;;;13.01;45.34
12759;BME280;20944;47.048;15.390;2023-04-10T11:17:48;98204.72;;;13.54;46.37
12759;BME280;20944;47.048;15.390;2023-04-10T11:20:18;98199.53;;;13.50;45.75
12759;BME280;20944;47.048;15.390;2023-04-10T11:23:14;98171.66;;;13.43;46.21
12759;BME280;20944;47.048;15.390;2023-04-10T11:25:47;98102.59;;;13.06;47.76
12759;BME280;20944;47.048;15.390;2023-04-10T11:28:37;98188.72;;;13.60;47.73
12759;BME280;20944;47.048;15.390;2023-04-10T11:31:19;98184.47;;;13.84;47.61
12759;BME280;20944;47.048;15.390;2023-04-10T11:33:59;98122.28;;;13.52;46.00
12759;BME280;20944;47.048;15.390;2023-04-10T11:36:28;98110.84;;;13.53;46.85
12759;BME280;20944;47.048;15.390;2023-04-10T11:38:57;98178.47;;;14.31;47.56
12759;BME280;20944;47.048;15.390;2023-04-10T11:41:26;98165.41;;;14.80;47.99
12759;BME280;20944;47.048;15.390;2023-04-10T11:43:58;98164.22;;;15.12;46.70
12759;BME280;20944;47.048;15.390;2023-04-10T11:46:27;98140.06;;;15.23;46.47
12759;BME280;20944;47.048;15.390;2023-04-10T11:48:56;98164.28;;;15.34;48.64
12759;BME280;20944;47.048;15.390;2023-04-10T11:51:25;98059.75;;;14.60;46.80
12759;BME280;20944;47.048;15.390;2023-04-10T11:54:05;98152.19;;;15.27;47.73
12759;BME280;20944;47.048;15.390;2023-04-10T11:56:34;98151.06;;;15.34;46.11
12759;BME280;20944;47.048;15.390;2023-04-10T11:59:05;98153.50;;;15.38;44.51
12759;BME280;20944;47.048;15.390;2023-04-10T12:01:37;98150.63;;;15.23;43.12
12759;BME280;20944;47.048;15.390;2023-04-10T12:04:15;98148.31;;;15.14;43.90
12759;BME280;20944;47.048;15.390;2023-04-10T12:06:44;98143.84;;;15.16;45.33
12759;BME280;20944;47.048;15.390;2023-04-10T12:09:13;98129.25;;;15.05;43.27
12759;BME280;20944;47.048;15.390;2023-04-10T12:11:48;98073.03;;;14.80;44.72
12759;BME280;20944;47.048;15.390;2023-04-10T12:14:19;98062.56;;;14.78;42.74
12759;BME280;20944;47.048;15.390;2023-04-10T12:16:49;98133.06;;;15.22;43.27
12759;BME280;20944;47.048;15.390;2023-04-10T12:19:19;98129.00;;;15.35;45.66
12759;BME280;20944;47.048;15.390;2023-04-10T12:21:47;98123.25;;;15.47;43.81
12759;BME280;20944;47.048;15.390;2023-04-10T12:24:39;98095.38;;;15.40;45.14
12759;BME280;20944;47.048;15.390;2023-04-10T12:27:08;98112.22;;;15.81;44.92
12759;BME280;20944;47.048;15.390;2023-04-10T12:29:44;98113.59;;;15.90;45.29
12759;BME280;20944;47.048;15.390;2023-04-10T12:32:12;98109.16;;;16.12;46.03
12759;BME280;20944;47.048;15.390;2023-04-10T12:34:41;98092.09;;;16.19;43.50
12759;BME280;20944;47.048;15.390;2023-04-10T12:37:09;98099.81;;;16.44;42.89
12759;BME280;20944;47.048;15.390;2023-04-10T12:39:38;98105.78;;;16.50;43.66
12759;BME280;20944;47.048;15.390;2023-04-10T12:42:12;98095.00;;;15.93;44.46
12759;BME280;20944;47.048;15.390;2023-04-10T12:44:53;98089.59;;;15.74;48.18
12759;BME280;20944;47.048;15.390;2023-04-10T12:47:23;98073.56;;;15.79;46.83
12759;BME280;20944;47.048;15.390;2023-04-10T12:50:08;98064.06;;;15.95;45.75
12759;BME280;20944;47.048;15.390;2023-04-10T12:52:38;98073.19;;;16.08;43.49
12759;BME280;20944;47.048;15.390;2023-04-10T12:55:12;98070.13;;;16.38;45.89
12759;BME280;20944;47.048;15.390;2023-04-10T12:57:42;98061.84;;;16.66;44.08
12759;BME280;20944;47.048;15.390;2023-04-10T13:00:13;98066.94;;;16.70;43.18
12759;BME280;20944;47.048;15.390;2023-04-10T13:02:43;98063.66;;;16.45;42.87
12759;BME280;20944;47.048;15.390;2023-04-10T13:05:11;98055.13;;;16.38;41.59
12759;BME280;20944;47.048;15.390;2023-04-10T13:07:40;98061.69;;;16.30;42.09